Time;durP1;ratioP1;P1;durP2;ratioP2;P2;SDS_P1;SDS_P2;PMS_P1;PMS_P2;Temp;Humidity;BMP_temperature;BMP_pressure;BME280_temperature;BME280_humidity;BME280_pressure;Samples;Min_cycle;Max_cycle;Signal;HPM_P1;HPM_P2
2023/06/16 00:01:31;;;;;;;82.00;2.13;;;20.80;23.70;;;;;;4972903;28;20409;-71
2023/06/16 00:03:57;;;;;;;81.10;2.33;;;20.90;24.90;;;;;;4970047;28;20431;-71
2023/06/16 00:06:27;;;;;;;80.73;2.50;;;20.90;23.80;;;;;;4972601;28;20416;-70
2023/06/16 00:08:54;;;;;;;80.30;1.97;;;20.90;23.70;;;;;;4970639;28;20433;-71
2023/06/16 00:11:20;;;;;;;80.57;2.20;;;20.90;24.70;;;;;;4972787;28;20422;-70
2023/06/16 00:13:48;;;;;;;80.60;2.40;;;20.90;24.10;;;;;;4972936;28;20413;-70
2023/06/16 00:16:19;;;;;;;80.27;2.03;;;20.90;24.60;;;;;;4969805;28;20473;-70
2023/06/16 00:18:49;;;;;;;81.47;2.60;;;21.00;24.30;;;;;;4972593;28;20453;-71
2023/06/16 00:21:19;;;;;;;80.77;2.47;;;21.10;24.40;;;;;;4970463;28;20411;-70
2023/06/16 00:23:46;;;;;;;80.83;2.40;;;21.10;24.70;;;;;;4971392;28;20449;-70
2023/06/16 00:26:12;;;;;;;80.33;1.97;;;20.90;23.70;;;;;;4972279;28;20872;-70
2023/06/16 00:28:41;;;;;;;80.70;2.30;;;21.00;23.50;;;;;;4972974;28;20493;-71
2023/06/16 00:31:07;;;;;;;80.40;2.33;;;21.20;24.20;;;;;;4972339;28;20510;-71
2023/06/16 00:33:32;;;;;;;80.60;2.10;;;21.30;24.30;;;;;;4969873;28;20527;-70
2023/06/16 00:35:58;;;;;;;80.27;2.07;;;21.40;24.30;;;;;;4972213;28;20174;-71
2023/06/16 00:38:25;;;;;;;80.77;2.23;;;21.20;24.00;;;;;;4972681;28;20281;-70
2023/06/16 00:40:50;;;;;;;80.50;2.03;;;21.30;24.50;;;;;;4972265;28;20166;-70
2023/06/16 00:43:16;;;;;;;80.47;2.10;;;21.20;23.70;;;;;;4972397;28;20438;-71
2023/06/16 00:45:41;;;;;;;80.57;2.20;;;21.20;24.80;;;;;;4972307;28;20186;-71
2023/06/16 00:48:07;;;;;;;82.00;2.70;;;21.10;24.40;;;;;;4972289;28;20186;-71
2023/06/16 00:50:33;;;;;;;80.33;2.10;;;21.10;25.20;;;;;;4972297;28;20179;-70
2023/06/16 00:52:59;;;;;;;81.30;2.27;;;21.00;25.60;;;;;;4972213;28;20202;-70
2023/06/16 00:55:25;;;;;;;81.10;2.30;;;21.00;24.90;;;;;;4972129;28;20286;-71
2023/06/16 00:57:53;;;;;;;80.50;2.23;;;20.90;26.00;;;;;;4972143;28;20461;-70
2023/06/16 01:00:20;;;;;;;81.10;2.20;;;20.80;24.60;;;;;;4972416;28;20493;-70
2023/06/16 01:02:46;;;;;;;80.53;2.07;;;20.80;26.00;;;;;;4972100;28;20427;-70
2023/06/16 01:05:17;;;;;;;80.67;2.30;;;20.80;25.20;;;;;;4971688;28;20422;-70
2023/06/16 01:08:09;;;;;;;81.07;2.50;;;20.70;24.80;;;;;;4972228;28;20174;-70
2023/06/16 01:11:10;;;;;;;80.50;2.10;;;20.60;25.30;;;;;;4972264;28;20421;-71
2023/06/16 01:13:47;;;;;;;80.90;2.10;;;20.80;25.40;;;;;;4971944;28;20437;-71
2023/06/16 01:16:18;;;;;;;80.50;2.07;;;20.80;25.50;;;;;;4973255;28;20437;-70
2023/06/16 01:18:45;;;;;;;80.57;2.10;;;20.80;25.00;;;;;;4975941;28;20473;-71
2023/06/16 01:21:48;;;;;;;80.60;2.17;;;20.70;25.20;;;;;;4976053;28;20447;-71
2023/06/16 01:24:19;;;;;;;81.03;2.47;;;20.80;25.30;;;;;;4973232;28;20418;-71
2023/06/16 01:26:52;;;;;;;80.27;1.90;;;20.70;25.30;;;;;;4975596;28;20481;-70
2023/06/16 01:29:22;;;;;;;81.27;2.60;;;20.50;25.10;;;;;;4973899;28;20449;-71
2023/06/16 01:31:50;;;;;;;80.67;2.20;;;20.70;25.30;;;;;;4974906;28;20836;-71
2023/06/16 01:34:17;;;;;;;80.77;2.30;;;20.70;26.50;;;;;;4975684;28;20414;-72
2023/06/16 01:36:45;;;;;;;80.40;2.00;;;20.60;26.40;;;;;;4975353;28;20497;-72
2023/06/16 01:39:13;;;;;;;81.17;2.27;;;20.60;25.70;;;;;;4975564;28;20413;-71
2023/06/16 01:41:39;;;;;;;81.47;2.47;;;20.40;26.10;;;;;;4975368;28;20920;-71
2023/06/16 01:44:06;;;;;;;80.90;2.37;;;20.50;25.90;;;;;;4975372;28;20410;-71
2023/06/16 01:46:32;;;;;;;81.60;2.53;;;20.40;26.30;;;;;;4975150;28;20394;-71
2023/06/16 01:48:58;;;;;;;80.67;2.00;;;20.20;26.10;;;;;;4975328;28;20412;-71
2023/06/16 01:51:24;;;;;;;81.27;2.40;;;20.10;26.00;;;;;;4975330;28;20418;-71
2023/06/16 01:53:52;;;;;;;80.80;2.00;;;20.30;26.20;;;;;;4974922;28;20183;-71
2023/06/16 01:56:18;;;;;;;81.50;2.83;;;20.00;26.00;;;;;;4975124;28;20930;-71
2023/06/16 01:58:44;;;;;;;84.83;2.30;;;20.00;27.50;;;;;;4975024;28;20455;-71
2023/06/16 02:01:22;;;;;;;81.47;2.53;;;20.10;26.90;;;;;;4975118;28;20577;-71
2023/06/16 02:03:52;;;;;;;81.70;2.67;;;20.30;26.30;;;;;;4975098;28;20404;-71
2023/06/16 02:06:30;;;;;;;81.43;2.13;;;20.10;27.00;;;;;;4973216;28;20414;-71
2023/06/16 02:08:59;;;;;;;81.80;2.37;;;20.30;27.60;;;;;;4972483;28;20420;-71
2023/06/16 02:11:25;;;;;;;81.00;2.10;;;19.90;28.00;;;;;;4974994;28;20946;-71
2023/06/16 02:13:52;;;;;;;83.10;2.40;;;19.70;27.80;;;;;;4974800;28;20468;-71
2023/06/16 02:16:19;;;;;;;81.53;2.27;;;19.70;27.80;;;;;;4974467;28;20413;-71
2023/06/16 02:18:44;;;;;;;81.23;2.10;;;19.90;26.90;;;;;;4974795;28;20464;-71
2023/06/16 02:21:10;;;;;;;81.57;2.37;;;20.00;27.70;;;;;;4974791;28;20500;-71
2023/06/16 02:23:36;;;;;;;81.40;2.30;;;20.00;27.20;;;;;;4974600;28;20457;-71
2023/06/16 02:26:01;;;;;;;81.27;2.10;;;20.10;27.30;;;;;;4973808;28;20591;-72
2023/06/16 02:28:27;;;;;;;82.23;2.63;;;20.10;27.20;;;;;;4972715;28;20199;-71
2023/06/16 02:30:53;;;;;;;81.80;2.70;;;20.10;27.10;;;;;;4974170;28;20256;-71
2023/06/16 02:33:18;;;;;;;81.67;2.17;;;20.10;27.20;;;;;;4974891;28;20199;-71
2023/06/16 02:35:44;;;;;;;81.50;2.30;;;20.10;27.10;;;;;;4974657;28;20182;-71
2023/06/16 02:38:10;;;;;;;81.40;2.20;;;20.30;27.60;;;;;;4974766;28;20208;-71
2023/06/16 02:40:36;;;;;;;81.30;2.10;;;20.20;27.20;;;;;;4974501;28;20600;-71
2023/06/16 02:43:02;;;;;;;81.80;2.30;;;20.10;27.10;;;;;;4973419;28;21006;-71
2023/06/16 02:45:28;;;;;;;81.50;2.17;;;20.10;27.30;;;;;;4974430;28;20420;-71
2023/06/16 02:47:53;;;;;;;81.83;2.40;;;19.90;27.60;;;;;;4974702;28;20272;-71
2023/06/16 02:50:21;;;;;;;82.07;2.47;;;19.80;27.60;;;;;;4974753;28;20187;-71
2023/06/16 02:52:48;;;;;;;81.77;2.20;;;20.30;28.20;;;;;;4974442;28;20243;-71
2023/06/16 02:55:14;;;;;;;81.97;2.47;;;19.90;27.50;;;;;;4973734;28;20416;-71
2023/06/16 02:57:39;;;;;;;81.80;2.20;;;19.80;27.20;;;;;;4974455;28;20457;-71
2023/06/16 03:00:09;;;;;;;82.00;2.40;;;19.80;27.10;;;;;;4974444;28;20179;-71
2023/06/16 03:02:35;;;;;;;81.83;2.30;;;19.80;27.40;;;;;;4974374;28;20189;-72
2023/06/16 03:05:02;;;;;;;81.77;2.20;;;19.70;27.40;;;;;;4974037;28;20511;-71
2023/06/16 03:07:31;;;;;;;81.97;2.23;;;19.60;28.70;;;;;;4974331;28;20422;-72
2023/06/16 03:09:59;;;;;;;81.80;2.10;;;19.30;27.30;;;;;;4973984;28;20449;-71
2023/06/16 03:12:24;;;;;;;82.07;2.43;;;19.60;28.80;;;;;;4974318;28;20435;-71
2023/06/16 03:14:50;;;;;;;82.00;2.43;;;19.30;28.50;;;;;;4973982;28;20779;-71
2023/06/16 03:17:20;;;;;;;81.90;2.13;;;19.30;28.20;;;;;;4974021;28;20197;-70
2023/06/16 03:19:47;;;;;;;82.00;2.40;;;19.40;29.00;;;;;;4974150;28;20412;-70
2023/06/16 03:22:12;;;;;;;81.90;2.20;;;19.40;28.90;;;;;;4973595;28;20934;-71
2023/06/16 03:24:38;;;;;;;81.90;2.20;;;19.50;28.80;;;;;;4973879;28;20412;-71
2023/06/16 03:27:04;;;;;;;82.33;2.37;;;19.60;28.90;;;;;;4973983;28;20177;-71
2023/06/16 03:29:30;;;;;;;82.47;2.30;;;19.40;28.20;;;;;;4973850;28;20624;-71
2023/06/16 03:31:55;;;;;;;82.27;2.33;;;19.50;29.20;;;;;;4973731;28;20243;-71
2023/06/16 03:34:22;;;;;;;82.30;2.30;;;19.50;29.00;;;;;;4973785;28;20962;-71
2023/06/16 03:36:48;;;;;;;82.20;2.23;;;19.30;29.20;;;;;;4973152;28;20202;-71
2023/06/16 03:39:14;;;;;;;82.13;2.20;;;19.30;28.40;;;;;;4973281;28;20444;-71
2023/06/16 03:41:39;;;;;;;83.10;2.50;;;19.40;28.30;;;;;;4973613;28;20430;-72
2023/06/16 03:44:05;;;;;;;83.70;2.90;;;19.40;28.70;;;;;;4973365;28;20211;-72
2023/06/16 03:46:34;;;;;;;82.33;2.20;;;19.30;29.20;;;;;;4973611;28;20204;-68
2023/06/16 03:48:59;;;;;;;82.30;2.40;;;19.30;29.30;;;;;;4973472;28;20256;-69
2023/06/16 03:51:25;;;;;;;83.17;2.40;;;19.40;29.00;;;;;;4973386;28;20505;-70
2023/06/16 03:53:51;;;;;;;82.10;2.03;;;19.20;29.00;;;;;;4973494;28;20383;-70
2023/06/16 03:56:17;;;;;;;82.10;2.20;;;19.40;28.60;;;;;;4973019;28;20648;-70
2023/06/16 03:58:43;;;;;;;82.60;2.50;;;19.30;29.20;;;;;;4973345;28;20221;-70
2023/06/16 04:01:09;;;;;;;83.47;2.67;;;19.30;29.00;;;;;;4973337;28;21249;-70
2023/06/16 04:03:35;;;;;;;82.30;2.40;;;19.40;28.60;;;;;;4973502;28;20280;-71
2023/06/16 04:06:01;;;;;;;82.07;2.13;;;19.40;29.50;;;;;;4972988;28;20176;-72
2023/06/16 04:08:27;;;;;;;82.30;2.20;;;19.20;29.60;;;;;;4975428;28;20436;-72
2023/06/16 04:10:57;;;;;;;83.00;2.67;;;19.00;29.40;;;;;;4973697;28;20531;-68
2023/06/16 04:13:23;;;;;;;82.30;2.27;;;19.30;29.70;;;;;;4973209;28;20340;-68
2023/06/16 04:15:49;;;;;;;82.90;2.63;;;19.00;29.70;;;;;;4972785;28;20891;-69
2023/06/16 04:18:15;;;;;;;82.13;2.10;;;20.70;31.70;;;;;;4972861;28;20524;-70
2023/06/16 04:20:40;;;;;;;82.33;2.30;;;19.00;30.40;;;;;;4972997;28;20658;-69
2023/06/16 04:23:09;;;;;;;82.27;2.30;;;19.00;30.00;;;;;;4971573;28;20227;-72
2023/06/16 04:25:35;;;;;;;82.57;2.20;;;18.90;29.00;;;;;;4972884;28;20197;-72
2023/06/16 04:28:01;;;;;;;83.37;2.43;;;18.20;30.40;;;;;;4972918;28;20496;-69
2023/06/16 04:30:30;;;;;;;83.60;3.03;;;18.20;30.90;;;;;;4972963;28;20418;-69
2023/06/16 04:32:58;;;;;;;82.97;2.63;;;18.30;31.20;;;;;;4972397;28;20437;-69
2023/06/16 04:35:27;;;;;;;83.20;2.97;;;19.00;30.90;;;;;;4972866;28;20426;-68
2023/06/16 04:37:56;;;;;;;83.10;2.90;;;18.80;31.00;;;;;;4972622;28;20519;-71
2023/06/16 04:40:22;;;;;;;82.70;2.70;;;18.90;29.90;;;;;;4972878;28;20423;-69
2023/06/16 04:42:49;;;;;;;82.30;2.10;;;19.40;30.00;;;;;;4972632;28;20462;-68
2023/06/16 04:45:15;;;;;;;87.87;2.60;;;19.00;30.00;;;;;;4972389;28;20504;-72
2023/06/16 04:47:42;;;;;;;83.07;2.67;;;19.00;29.80;;;;;;4972490;28;20415;-72
2023/06/16 04:50:09;;;;;;;82.43;2.60;;;19.30;29.40;;;;;;4972048;28;20509;-68
2023/06/16 04:52:36;;;;;;;82.77;2.43;;;19.40;29.50;;;;;;4972193;28;20750;-71
2023/06/16 04:55:05;;;;;;;82.73;2.53;;;19.30;30.00;;;;;;4971977;28;20456;-69
2023/06/16 04:57:31;;;;;;;104.47;3.80;;;19.30;30.10;;;;;;4971962;28;20519;-69
2023/06/16 04:59:58;;;;;;;82.70;2.60;;;19.40;29.70;;;;;;4972306;28;20566;-73
2023/06/16 05:02:24;;;;;;;82.57;2.43;;;19.50;29.40;;;;;;4973049;28;20557;-68
2023/06/16 05:04:50;;;;;;;82.67;2.43;;;19.50;29.80;;;;;;4972414;28;20427;-69
2023/06/16 05:07:15;;;;;;;82.40;2.33;;;19.60;29.70;;;;;;4972619;28;20268;-71
2023/06/16 05:09:41;;;;;;;84.80;3.23;;;19.70;30.30;;;;;;4972997;28;20559;-72
2023/06/16 05:12:07;;;;;;;82.37;2.23;;;19.80;29.70;;;;;;4972281;28;20270;-69
2023/06/16 05:14:33;;;;;;;85.20;2.87;;;19.80;29.70;;;;;;4972441;28;20209;-68
2023/06/16 05:17:00;;;;;;;82.40;2.30;;;19.80;28.80;;;;;;4972172;28;20427;-68
2023/06/16 05:19:26;;;;;;;82.77;2.57;;;19.60;29.00;;;;;;4972634;28;20730;-70
2023/06/16 05:21:52;;;;;;;84.07;2.77;;;19.70;29.10;;;;;;4972101;28;20444;-71
2023/06/16 05:24:17;;;;;;;82.63;2.27;;;19.90;28.60;;;;;;4972397;28;20399;-68
2023/06/16 05:26:43;;;;;;;83.50;2.57;;;20.00;28.90;;;;;;4972226;28;20229;-69
2023/06/16 05:29:08;;;;;;;83.37;2.83;;;19.80;28.20;;;;;;4972082;28;20548;-69
2023/06/16 05:31:35;;;;;;;82.63;2.40;;;19.50;28.70;;;;;;4972375;28;20242;-71
2023/06/16 05:34:01;;;;;;;82.67;2.33;;;19.40;28.80;;;;;;4972476;28;20234;-69
2023/06/16 05:36:29;;;;;;;82.53;2.20;;;19.00;29.50;;;;;;4971997;28;20422;-69
2023/06/16 05:38:55;;;;;;;83.33;2.50;;;19.30;29.40;;;;;;4972065;28;20839;-72
2023/06/16 05:41:24;;;;;;;83.50;2.77;;;19.40;29.30;;;;;;4972359;28;20480;-69
2023/06/16 05:43:51;;;;;;;82.40;2.20;;;19.40;29.20;;;;;;4972354;28;20418;-72
2023/06/16 05:46:17;;;;;;;82.73;2.60;;;19.40;29.50;;;;;;4973741;28;20820;-72
2023/06/16 05:48:43;;;;;;;83.00;2.70;;;18.90;29.90;;;;;;4973571;28;20421;-72
2023/06/16 05:51:09;;;;;;;83.63;2.87;;;19.50;30.20;;;;;;4973768;28;20176;-72
2023/06/16 05:53:34;;;;;;;82.80;2.50;;;19.30;29.60;;;;;;4973953;28;20442;-71
2023/06/16 05:56:00;;;;;;;83.40;2.53;;;19.50;29.50;;;;;;4973555;28;20550;-72
2023/06/16 05:58:26;;;;;;;82.97;2.40;;;19.50;30.00;;;;;;4973973;28;20210;-72
2023/06/16 06:00:51;;;;;;;83.67;3.13;;;19.30;29.40;;;;;;4973894;28;20210;-72
2023/06/16 06:03:17;;;;;;;82.77;2.40;;;19.20;30.00;;;;;;4977463;28;20204;-72
2023/06/16 06:05:42;;;;;;;83.33;2.50;;;19.30;29.20;;;;;;4977079;28;20180;-72
2023/06/16 06:08:08;;;;;;;82.80;2.63;;;19.40;29.20;;;;;;4977254;28;20517;-72
2023/06/16 06:10:33;;;;;;;82.67;2.40;;;19.60;29.30;;;;;;4976996;28;20181;-72
2023/06/16 06:13:03;;;;;;;82.67;2.40;;;19.50;29.30;;;;;;4976494;28;20199;-72
2023/06/16 06:15:29;;;;;;;82.53;2.40;;;20.10;29.00;;;;;;4976036;28;20189;-72
2023/06/16 06:17:54;;;;;;;82.50;2.70;;;20.00;29.10;;;;;;4977524;28;20462;-70
2023/06/16 06:20:20;;;;;;;82.77;2.40;;;20.60;28.30;;;;;;4977547;28;20539;-72
2023/06/16 06:22:45;;;;;;;82.70;2.53;;;20.80;26.50;;;;;;4975844;28;20215;-72
2023/06/16 06:25:13;;;;;;;83.23;2.50;;;20.80;27.20;;;;;;4975684;28;20177;-70
2023/06/16 06:27:39;;;;;;;83.97;2.63;;;20.80;27.00;;;;;;4977857;28;20180;-71
2023/06/16 06:30:05;;;;;;;82.40;2.40;;;21.20;27.80;;;;;;4976087;28;20435;-71
2023/06/16 06:32:31;;;;;;;81.90;2.13;;;21.70;27.80;;;;;;4977061;28;20813;-72
2023/06/16 06:34:56;;;;;;;82.57;2.60;;;22.00;27.40;;;;;;4976970;28;20508;-72
2023/06/16 06:37:28;;;;;;;82.47;2.50;;;22.10;27.10;;;;;;4977510;28;20211;-73
2023/06/16 06:39:55;;;;;;;82.80;2.50;;;22.20;25.80;;;;;;4977001;28;20817;-73
2023/06/16 06:42:21;;;;;;;82.90;2.30;;;21.60;26.40;;;;;;4976541;28;20496;-73
2023/06/16 06:44:46;;;;;;;82.87;2.47;;;21.00;26.70;;;;;;4976663;28;20552;-75
2023/06/16 06:47:12;;;;;;;82.40;2.40;;;21.10;26.80;;;;;;4976743;28;20455;-71
2023/06/16 06:49:37;;;;;;;83.67;2.67;;;21.20;26.90;;;;;;4976941;28;20182;-71
2023/06/16 06:52:04;;;;;;;82.37;2.30;;;21.20;26.80;;;;;;4976878;28;20225;-73
2023/06/16 06:54:29;;;;;;;82.10;2.23;;;21.50;26.90;;;;;;4976194;28;20261;-73
2023/06/16 06:56:55;;;;;;;82.17;2.50;;;21.40;27.00;;;;;;4976397;28;20500;-72
2023/06/16 06:59:20;;;;;;;82.20;2.50;;;21.70;26.00;;;;;;4976793;28;20210;-73
2023/06/16 07:01:46;;;;;;;84.13;3.33;;;22.10;26.90;;;;;;4976708;28;20590;-73
2023/06/16 07:04:11;;;;;;;82.07;2.37;;;22.40;25.50;;;;;;4976509;28;20182;-72
2023/06/16 07:06:37;;;;;;;81.87;2.50;;;22.10;26.00;;;;;;4975618;28;20629;-70
2023/06/16 07:09:03;;;;;;;82.73;2.87;;;22.00;26.00;;;;;;4974323;28;20260;-70
2023/06/16 07:11:28;;;;;;;82.20;2.60;;;22.50;25.20;;;;;;4974179;28;20216;-70
2023/06/16 07:13:54;;;;;;;81.77;2.30;;;22.00;24.90;;;;;;4974136;28;20190;-70
2023/06/16 07:16:19;;;;;;;81.87;2.47;;;22.50;25.00;;;;;;4974053;28;20187;-70
2023/06/16 07:18:45;;;;;;;82.73;2.90;;;22.80;24.50;;;;;;4974072;28;20297;-70
2023/06/16 07:21:11;;;;;;;81.47;2.63;;;22.60;24.20;;;;;;4974378;28;20184;-67
2023/06/16 07:23:36;;;;;;;81.73;2.63;;;22.70;24.20;;;;;;4974046;28;20246;-72
2023/06/16 07:26:02;;;;;;;88.20;2.90;;;22.20;24.60;;;;;;4973710;28;20176;-70
2023/06/16 07:28:28;;;;;;;81.20;2.20;;;22.20;24.70;;;;;;4974201;28;20180;-70
2023/06/16 07:30:54;;;;;;;81.37;2.57;;;22.50;24.20;;;;;;4973787;28;20426;-70
2023/06/16 07:33:21;;;;;;;81.50;2.80;;;22.90;24.20;;;;;;4973840;28;20736;-70
2023/06/16 07:35:47;;;;;;;83.80;4.10;;;22.90;23.50;;;;;;4973537;28;20424;-70
2023/06/16 07:38:14;;;;;;;81.53;2.40;;;23.20;22.90;;;;;;4973850;28;20467;-71
2023/06/16 07:40:40;;;;;;;81.47;2.37;;;22.80;23.50;;;;;;4973717;28;20418;-71
2023/06/16 07:43:05;;;;;;;81.17;2.40;;;22.40;23.80;;;;;;4973508;28;20435;-70
2023/06/16 07:45:33;;;;;;;81.27;2.40;;;22.70;23.20;;;;;;4973543;28;20172;-70
2023/06/16 07:48:02;;;;;;;81.27;2.30;;;22.60;22.50;;;;;;4973568;28;20445;-70
2023/06/16 07:50:27;;;;;;;80.77;2.47;;;22.80;22.90;;;;;;4973626;28;20447;-70
2023/06/16 07:52:53;;;;;;;81.67;3.17;;;23.20;22.40;;;;;;4973386;28;20472;-72
2023/06/16 07:55:19;;;;;;;81.27;2.63;;;23.50;21.90;;;;;;4973160;28;20204;-70
2023/06/16 07:57:46;;;;;;;81.43;2.70;;;24.00;21.50;;;;;;4973407;28;20240;-70
2023/06/16 08:00:14;;;;;;;80.10;2.40;;;23.50;21.70;;;;;;4973444;28;20409;-71
2023/06/16 08:02:43;;;;;;;80.77;2.60;;;23.30;22.00;;;;;;4973370;28;20441;-70
2023/06/16 08:05:10;;;;;;;80.97;2.23;;;23.20;21.30;;;;;;4973070;28;20421;-70
2023/06/16 08:07:36;;;;;;;80.83;2.30;;;23.70;21.90;;;;;;4973376;28;20421;-70
2023/06/16 08:10:04;;;;;;;80.20;2.20;;;23.80;21.20;;;;;;4973327;28;20444;-70
2023/06/16 08:12:30;;;;;;;81.83;2.53;;;23.40;22.00;;;;;;4972040;28;20665;-70
2023/06/16 08:14:56;;;;;;;80.90;2.70;;;23.10;22.60;;;;;;4972910;28;20500;-73
2023/06/16 08:17:22;;;;;;;80.87;2.63;;;23.40;22.20;;;;;;4971857;28;20858;-71
2023/06/16 08:19:47;;;;;;;80.50;2.37;;;24.20;20.90;;;;;;4973195;28;20418;-70
2023/06/16 08:22:13;;;;;;;81.23;2.93;;;24.30;20.50;;;;;;4972621;28;20459;-70
2023/06/16 08:24:38;;;;;;;80.30;2.23;;;24.20;20.30;;;;;;4970827;28;20187;-70
2023/06/16 08:27:04;;;;;;;80.73;2.70;;;23.80;20.10;;;;;;4972202;28;20257;-72
2023/06/16 08:29:30;;;;;;;80.07;2.37;;;23.70;21.40;;;;;;4972715;28;20170;-73
2023/06/16 08:31:56;;;;;;;80.57;2.50;;;24.20;20.10;;;;;;4972886;28;20619;-70
2023/06/16 08:34:22;;;;;;;80.47;2.40;;;24.20;20.90;;;;;;4972762;28;20182;-73
2023/06/16 08:36:48;;;;;;;80.47;2.70;;;23.50;21.10;;;;;;4972744;28;20938;-70
2023/06/16 08:39:13;;;;;;;80.83;2.80;;;23.70;20.50;;;;;;4972902;28;20202;-70
2023/06/16 08:41:40;;;;;;;83.17;2.70;;;24.30;20.40;;;;;;4972627;28;20198;-70
2023/06/16 08:44:08;;;;;;;79.60;2.30;;;24.90;18.90;;;;;;4971948;28;20644;-69
2023/06/16 08:46:33;;;;;;;79.23;2.20;;;24.30;17.20;;;;;;4972540;28;20418;-70
2023/06/16 08:48:59;;;;;;;79.20;2.20;;;23.90;18.40;;;;;;4973029;28;20432;-70
2023/06/16 08:51:27;;;;;;;80.10;2.80;;;24.20;19.10;;;;;;4972612;28;20189;-70
2023/06/16 08:54:00;;;;;;;79.80;2.40;;;25.10;18.20;;;;;;4972508;28;20178;-70
2023/06/16 08:56:31;;;;;;;81.07;2.50;;;25.80;17.90;;;;;;4972543;28;20420;-70
2023/06/16 08:58:58;;;;;;;79.43;2.70;;;24.90;15.30;;;;;;4972598;28;20458;-70
2023/06/16 09:01:25;;;;;;;78.90;2.37;;;24.60;14.90;;;;;;4972586;28;20416;-70
2023/06/16 09:03:52;;;;;;;78.80;2.23;;;24.60;14.60;;;;;;4972150;28;20432;-71
2023/06/16 09:06:17;;;;;;;78.40;2.40;;;25.30;15.30;;;;;;4971738;28;20825;-70
2023/06/16 09:08:43;;;;;;;78.53;2.60;;;25.20;14.80;;;;;;4972286;28;20420;-72
2023/06/16 09:11:09;;;;;;;78.10;2.40;;;25.00;15.10;;;;;;4972155;28;20549;-70
2023/06/16 09:13:34;;;;;;;78.47;2.30;;;25.20;15.10;;;;;;4972672;28;20209;-73
2023/06/16 09:16:00;;;;;;;77.87;2.00;;;25.10;13.00;;;;;;4972085;28;20424;-70
2023/06/16 09:18:37;;;;;;;78.20;2.50;;;25.30;12.40;;;;;;4996101;23;20231;-71
2023/06/16 09:21:05;;;;;;;78.97;2.53;;;26.10;13.60;;;;;;5005537;28;20262;-69
2023/06/16 09:23:31;;;;;;;77.30;2.27;;;26.50;13.10;;;;;;5011779;28;20507;-68
2023/06/16 09:25:57;;;;;;;78.00;2.40;;;26.00;12.90;;;;;;5011635;28;20487;-69
2023/06/16 09:28:36;;;;;;;77.47;2.37;;;26.30;14.80;;;;;;5022968;28;20939;-69
2023/06/16 09:31:04;;;;;;;78.07;2.70;;;26.80;14.30;;;;;;5031244;28;20251;-69
2023/06/16 09:33:30;;;;;;;77.40;2.30;;;26.70;15.40;;;;;;5031419;28;20399;-69
2023/06/16 09:35:58;;;;;;;76.97;2.10;;;26.80;13.90;;;;;;5032087;28;20414;-70
2023/06/16 09:38:24;;;;;;;77.23;2.30;;;27.50;13.50;;;;;;5035134;28;20451;-69
2023/06/16 09:40:49;;;;;;;77.43;2.60;;;26.70;12.90;;;;;;5035146;28;20754;-69
2023/06/16 09:43:15;;;;;;;77.37;2.47;;;26.10;12.80;;;;;;5034877;28;20414;-70
2023/06/16 09:45:41;;;;;;;76.77;2.13;;;26.50;13.70;;;;;;5034654;28;20295;-70
2023/06/16 09:48:11;;;;;;;77.20;2.53;;;26.40;13.90;;;;;;5034979;28;20275;-70
2023/06/16 09:50:40;;;;;;;82.47;2.90;;;26.00;14.70;;;;;;5035116;28;20161;-69
2023/06/16 09:53:07;;;;;;;77.40;2.70;;;25.80;14.10;;;;;;5034733;28;20403;-69
2023/06/16 09:55:39;;;;;;;77.17;2.67;;;25.50;15.00;;;;;;5034614;28;20778;-69
2023/06/16 09:58:05;;;;;;;76.70;2.53;;;25.40;14.90;;;;;;5034691;28;20457;-70
2023/06/16 10:00:33;;;;;;;77.83;2.73;;;26.00;13.50;;;;;;5034781;28;20415;-69
2023/06/16 10:03:00;;;;;;;76.57;2.30;;;25.90;14.20;;;;;;5034789;28;20854;-69
2023/06/16 10:05:28;;;;;;;76.57;2.30;;;25.50;13.40;;;;;;5034229;28;20403;-69
2023/06/16 10:07:57;;;;;;;76.93;2.50;;;25.50;13.70;;;;;;5034726;28;20854;-70
2023/06/16 10:10:28;;;;;;;76.27;2.40;;;25.90;14.40;;;;;;5034429;28;20415;-69
2023/06/16 10:12:55;;;;;;;76.90;2.50;;;26.30;12.80;;;;;;5034773;28;20415;-69
2023/06/16 10:15:25;;;;;;;77.30;2.87;;;26.10;13.10;;;;;;5034038;28;20418;-70
2023/06/16 10:17:53;;;;;;;76.20;2.07;;;27.00;14.50;;;;;;5034311;28;20462;-69
2023/06/16 10:20:25;;;;;;;76.60;2.57;;;26.80;11.50;;;;;;5034468;28;20418;-69
2023/06/16 10:22:51;;;;;;;75.97;2.10;;;27.00;12.20;;;;;;5034637;28;20384;-70
2023/06/16 10:25:18;;;;;;;75.87;2.40;;;26.50;10.80;;;;;;5033923;28;20415;-69
2023/06/16 10:27:44;;;;;;;75.80;2.30;;;25.90;11.50;;;;;;5034113;28;20235;-69
2023/06/16 10:30:16;;;;;;;76.53;2.80;;;25.50;11.60;;;;;;5034364;28;20442;-69
2023/06/16 10:32:46;;;;;;;75.97;2.43;;;25.40;11.80;;;;;;5034302;28;20461;-69
2023/06/16 10:35:13;;;;;;;75.67;2.20;;;25.70;12.30;;;;;;5033903;28;20412;-70
2023/06/16 10:37:38;;;;;;;75.67;2.30;;;26.30;12.00;;;;;;5033923;28;20497;-69
2023/06/16 10:40:04;;;;;;;75.90;2.40;;;25.90;11.90;;;;;;5033815;28;20408;-70
2023/06/16 10:42:35;;;;;;;75.67;2.20;;;25.80;12.80;;;;;;5033702;28;20168;-69
2023/06/16 10:45:39;;;;;;;75.17;2.10;;;25.70;12.70;;;;;;5033738;28;20415;-69
2023/06/16 10:48:11;;;;;;;75.17;2.37;;;26.20;11.20;;;;;;4991651;28;20447;-69
2023/06/16 10:50:39;;;;;;;75.10;2.43;;;26.40;11.30;;;;;;4992063;28;20421;-72
2023/06/16 10:53:09;;;;;;;77.70;2.17;;;27.00;9.80;;;;;;4992295;28;20421;-71
2023/06/16 10:55:36;;;;;;;75.17;2.30;;;27.00;9.90;;;;;;4992159;28;20945;-73
2023/06/16 10:58:16;;;;;;;75.27;2.67;;;26.70;10.50;;;;;;4992663;28;20507;-72
2023/06/16 11:00:43;;;;;;;74.90;2.00;;;27.30;11.50;;;;;;4992850;28;20419;-73
2023/06/16 11:03:08;;;;;;;74.87;2.10;;;27.50;9.60;;;;;;4992614;28;20455;-73
2023/06/16 11:05:38;;;;;;;75.70;2.50;;;27.80;11.10;;;;;;4991768;28;20440;-73
2023/06/16 11:08:05;;;;;;;74.97;2.17;;;28.70;9.90;;;;;;4992127;28;20196;-73
2023/06/16 11:10:53;;;;;;;74.70;2.30;;;28.40;9.40;;;;;;4992422;28;20409;-74
2023/06/16 11:13:33;;;;;;;75.03;2.50;;;27.60;8.50;;;;;;4992855;28;20409;-73
2023/06/16 11:16:00;;;;;;;74.17;2.10;;;26.70;9.80;;;;;;4992623;28;20416;-73
2023/06/16 11:18:27;;;;;;;75.07;2.63;;;26.70;9.10;;;;;;4992302;28;21113;-73
2023/06/16 11:21:00;;;;;;;75.60;2.90;;;26.70;9.90;;;;;;4993692;28;20416;-73
2023/06/16 11:23:26;;;;;;;74.27;2.20;;;26.90;9.60;;;;;;5034339;28;20415;-73
2023/06/16 11:25:53;;;;;;;74.40;2.30;;;26.50;9.50;;;;;;5033969;28;20713;-73
2023/06/16 11:28:20;;;;;;;74.17;2.30;;;26.40;10.30;;;;;;5034650;28;20585;-73
2023/06/16 11:30:49;;;;;;;73.57;2.00;;;26.50;10.40;;;;;;5034129;28;20417;-73
2023/06/16 11:33:19;;;;;;;74.10;2.27;;;26.10;10.70;;;;;;5034043;28;20421;-72
2023/06/16 11:35:45;;;;;;;74.30;2.50;;;25.90;10.30;;;;;;5034002;28;20499;-72
2023/06/16 11:38:11;;;;;;;75.23;2.50;;;26.80;9.70;;;;;;5033493;28;20462;-73
2023/06/16 11:40:36;;;;;;;74.80;2.53;;;27.30;9.90;;;;;;5033355;28;20405;-72
2023/06/16 11:43:04;;;;;;;74.27;2.10;;;28.20;9.00;;;;;;5033376;28;20259;-73
2023/06/16 11:45:38;;;;;;;74.40;2.20;;;29.60;7.70;;;;;;5033070;28;20164;-73
2023/06/16 11:48:07;;;;;;;74.50;2.37;;;30.20;7.50;;;;;;5033138;28;20476;-73
2023/06/16 11:50:33;;;;;;;74.90;2.50;;;29.40;7.20;;;;;;5032664;28;20943;-74
2023/06/16 11:53:00;;;;;;;73.47;2.07;;;30.10;6.00;;;;;;5032797;28;20419;-73
2023/06/16 11:55:26;;;;;;;73.33;2.23;;;29.60;7.00;;;;;;5032926;28;20419;-73
2023/06/16 11:57:51;;;;;;;73.27;2.23;;;28.30;7.80;;;;;;5033035;28;20817;-73
2023/06/16 12:00:19;;;;;;;72.60;1.80;;;27.40;8.60;;;;;;5032006;28;20431;-72
2023/06/16 12:02:47;;;;;;;74.57;2.50;;;28.30;8.40;;;;;;5032827;28;20251;-73
2023/06/16 12:05:28;;;;;;;73.07;2.27;;;29.20;7.90;;;;;;5032701;28;20417;-73
2023/06/16 12:07:54;;;;;;;74.43;2.50;;;30.10;6.70;;;;;;5033717;28;20427;-74
2023/06/16 12:10:22;;;;;;;74.00;2.10;;;32.20;7.10;;;;;;5033091;28;20418;-74
2023/06/16 12:12:47;;;;;;;72.73;1.80;;;32.80;4.60;;;;;;5032936;28;20183;-73
2023/06/16 12:15:18;;;;;;;73.10;2.23;;;31.20;5.60;;;;;;5032996;28;20407;-73
2023/06/16 12:17:44;;;;;;;72.57;2.03;;;31.10;4.70;;;;;;5032193;28;20216;-73
2023/06/16 12:20:12;;;;;;;72.80;2.20;;;29.00;6.90;;;;;;5033264;28;20403;-73
2023/06/16 12:22:40;;;;;;;73.10;2.10;;;28.00;8.70;;;;;;5032458;28;20399;-72
2023/06/16 12:25:14;;;;;;;72.77;2.20;;;28.00;8.20;;;;;;5032004;28;20407;-72
2023/06/16 12:27:44;;;;;;;73.10;2.10;;;27.60;8.30;;;;;;5032376;28;20438;-71
2023/06/16 12:30:11;;;;;;;73.20;2.40;;;28.10;8.20;;;;;;5032065;28;20469;-71
2023/06/16 12:32:36;;;;;;;72.77;2.00;;;27.80;8.50;;;;;;5031848;28;20798;-71
2023/06/16 12:35:02;;;;;;;73.93;2.67;;;27.60;8.50;;;;;;5031813;28;20407;-72
2023/06/16 12:37:29;;;;;;;72.87;2.20;;;27.70;9.00;;;;;;5031875;28;20216;-71
2023/06/16 12:40:00;;;;;;;73.73;2.30;;;28.40;8.30;;;;;;5032126;28;20403;-71